Latest Coastal Weather Observations for Bairnsdale

IDV60701

Issued at 2:55 am EST Wednesday 3 September 2014 (issued every 10 minutes, with the page automatically refreshed every 10 minutes)

About coastal observations | Map of coastal stations | Coastal observations for VIC | Marine services | Other Formats
Station Details ID: 085279 Name: BAIRNSDALE AIRPORT Lat: -37.88 Lon: 147.57 Height: 49.4 m
Data from the previous 72 hours. | See also: Recent months at Bairnsdale
Date/Time
EST
Temp

°C
Wind Pressure Rain
since 9am
mm
Weather Cloud Vis
km
Sea
Height
m
Swell
Dir
 
Speed
knots
Gust
knots
hPa Trend Height
m
Period
s
Dir
03/02:30am 6.2 W 11 15 1019.9 - 2.6 - Partly cloudy 10 - - - -
03/02:00am 6.2 W 12 15 1020.1 - 2.6 - - 10 - - - -
03/01:30am 5.9 W 11 14 1020.4 - 2.6 - - 10 - - - -
03/01:00am 5.9 W 10 13 1020.6 - 2.6 - - 10 - - - -
03/12:30am 5.5 W 10 12 1020.7 - 2.6 - - 10 - - - -
03/12:00am 5.4 W 9 11 1020.9 - 2.6 - - 10 - - - -
 
Date/Time
EST
Temp

°C
Wind Pressure Rain
since 9am
mm
Weather Cloud Vis
km
Sea
Height
m
Swell
Dir
 
Speed
knots
Gust
knots
hPa Trend Height
m
Period
s
Dir
02/11:30pm 5.4 W 9 11 1021.1 - 2.6 - - 10 - - - -
02/11:00pm 5.6 W 8 10 1021.1 - 2.6 - - 10 - - - -
02/10:30pm 6.4 W 9 11 1021.0 - 2.6 - - 10 - - - -
02/10:00pm 6.9 W 9 12 1020.9 - 2.6 - - 10 - - - -
02/09:30pm 6.7 WSW 8 11 1020.9 - 2.6 - Partly cloudy 10 - - - -
02/09:00pm 7.1 W 9 11 1020.8 - 2.6 - Mostly clear 10 - - - -
02/08:30pm 6.5 W 6 8 1020.5 - 2.6 - - 10 - - - -
02/08:00pm 7.3 WSW 9 10 1020.3 - 2.6 - - 10 - - - -
02/07:30pm 6.2 WSW 8 10 1020.2 - 2.6 - - 10 - - - -
02/07:00pm 6.6 SW 7 8 1019.8 - 2.6 - - 10 - - - -
02/06:30pm 7.3 SW 8 9 1019.6 - 2.6 - - 10 - - - -
02/06:00pm 8.3 SW 9 10 1019.3 - 2.6 - - 10 - - - -
02/05:30pm 9.9 SSW 12 16 1018.8 - 2.6 - Partly cloudy 10 - - - -
02/05:00pm 11.3 SSW 13 18 1018.4 - 2.6 - Partly cloudy 10 - - - -
02/04:30pm 11.8 SSW 15 21 1018.0 - 2.6 - Partly cloudy 10 - - - -
02/04:00pm 12.2 S 17 21 1017.6 - 2.6 - Partly cloudy 10 - - - -
02/03:30pm 12.1 S 19 25 1017.2 - 2.6 - Partly cloudy 10 - - - -
02/03:00pm 12.3 S 18 23 1016.9 - 2.6 - Mostly cloudy 10 - - - -
02/02:30pm 12.0 S 17 21 1016.6 - 2.6 - Partly cloudy 10 - - - -
02/02:00pm 11.8 SSW 19 24 1016.4 - 2.6 - Partly cloudy 10 - - - -
02/01:30pm 11.9 S 18 25 1016.1 - 2.6 - Partly cloudy 10 - - - -
02/01:00pm 11.6 S 15 20 1015.9 - 2.6 - Partly cloudy 10 - - - -
02/12:30pm 10.9 S 13 15 1016.0 - 2.6 - Partly cloudy - - - - -
02/12:00pm 9.6 W 7 10 1015.9 - 2.6 Recent precip. Cloudy 10 - - - -
02/11:30am 9.0 W 5 7 1015.8 - 2.6 - Partly cloudy 10 - - - -
02/11:00am 9.1 SW 6 9 1015.6 - 2.2 - Partly cloudy - - - - -
02/10:30am 8.9 SW 11 15 1015.8 - 2.0 - Partly cloudy - - - - -
02/10:00am 10.1 WSW 13 19 1015.3 - 0.2 - Partly cloudy 10 - - - -
02/09:30am 9.8 W 12 17 1014.8 - 0.2 - Partly cloudy 10 - - - -
02/09:00am 10.2 W 14 19 1014.8 - 5.8 - Cloudy 10 - - - -
02/08:30am 9.7 W 12 18 1014.4 - 5.8 - Partly cloudy 10 - - - -
02/08:00am 9.6 W 13 17 1014.2 - 5.8 - Partly cloudy 10 - - - -
02/07:30am 9.4 W 12 18 1013.8 - 5.8 - Partly cloudy 10 - - - -
02/07:00am 9.1 W 12 17 1013.2 - 5.8 - - 10 - - - -
02/06:30am 9.1 W 11 15 1012.9 - 5.8 - Partly cloudy 10 - - - -
02/06:00am 9.2 W 13 18 1012.4 - 5.8 - Cloudy 10 - - - -
02/05:30am 9.2 W 11 15 1012.0 - 5.8 - - 10 - - - -
02/05:00am 9.3 W 11 16 1011.7 - 5.8 - - 10 - - - -
02/04:30am 9.5 W 12 17 1011.3 - 5.8 - Partly cloudy 10 - - - -
02/04:00am 9.6 W 13 17 1011.2 - 5.8 - Cloudy 10 - - - -
02/03:30am 9.6 W 12 18 1011.0 - 5.8 - Cloudy 10 - - - -
02/03:00am 9.5 W 10 14 1011.0 - 5.8 - Cloudy 10 - - - -
02/02:30am 9.5 W 9 12 1010.8 - 5.8 - Cloudy 10 - - - -
02/02:00am 9.5 W 9 13 1011.0 - 5.8 - Cloudy 10 - - - -
02/01:30am 9.4 W 9 12 1011.1 - 5.8 - Cloudy 10 - - - -
02/01:00am 9.3 WNW 8 11 1011.0 - 5.8 - Cloudy 10 - - - -
02/12:30am 9.3 WNW 8 11 1010.8 - 5.8 - Cloudy - - - - -
02/12:00am 9.4 WNW 9 11 1010.9 - 5.8 Recent precip. Cloudy - - - - -
 
Date/Time
EST
Temp

°C
Wind Pressure Rain
since 9am
mm
Weather Cloud Vis
km
Sea
Height
m
Swell
Dir
 
Speed
knots
Gust
knots
hPa Trend Height
m
Period
s
Dir
01/11:30pm 9.3 WNW 8 10 1010.8 - 5.6 - Partly cloudy - - - - -
01/11:00pm 9.3 W 9 12 1010.7 - 5.2 - - - - - - -
01/10:30pm 9.4 W 9 12 1010.7 - 4.4 - - - - - - -
01/10:00pm 9.5 W 9 12 1010.8 - 3.8 - - - - - - -
01/09:30pm 9.7 W 11 15 1010.6 - 3.4 - Partly cloudy 10 - - - -
01/09:00pm 9.9 W 9 13 1010.4 - 3.0 Rain Cloudy 10 - - - -
01/08:30pm 10.2 W 8 11 1010.2 - 2.6 - Partly cloudy 10 - - - -
01/08:00pm 10.4 W 10 13 1010.1 - 2.6 - Partly cloudy - - - - -
01/07:30pm 10.6 WSW 10 13 1009.9 - 2.4 - Partly cloudy - - - - -
01/07:00pm 10.9 WSW 10 13 1009.8 - 2.0 - Partly cloudy 10 - - - -
01/06:30pm 11.3 W 9 11 1009.4 - 1.2 - Partly cloudy 10 - - - -
01/06:00pm 11.2 W 6 7 1008.9 - 0.8 Rain Mostly cloudy 10 - - - -
01/05:30pm 11.8 SSW 11 13 1008.1 - 0.4 - Partly cloudy 10 - - - -
01/05:00pm 12.4 SW 12 18 1008.0 - 0.0 - Partly cloudy 10 - - - -
01/04:30pm 13.8 SW 17 21 1007.5 - 0.0 - Partly cloudy 10 - - - -
01/04:00pm 14.8 SW 14 19 1006.9 - 0.0 - Partly cloudy 10 - - - -
01/03:30pm 15.6 SW 13 16 1006.4 - 0.0 - Cloudy 10 - - - -
01/03:00pm 16.8 SW 15 21 1006.1 - 0.0 - Cloudy 10 - - - -
01/02:37pm 19.0 WSW 15 22 1005.8 - 0.0 - Cloudy 10 - - - -
01/02:30pm 19.9 WNW 10 12 1005.4 - 0.0 - Cloudy 10 - - - -
01/02:18pm 19.8 NNW 16 24 1005.3 - 0.0 - Cloudy 10 - - - -
01/02:00pm 19.5 N 9 13 1005.3 - 0.0 - Partly cloudy 10 - - - -
01/01:30pm 20.0 NE 10 17 1005.9 - 0.0 - Partly cloudy 10 - - - -
01/01:00pm 18.6 NNE 7 12 1006.5 - 0.0 - Partly cloudy 10 - - - -
01/12:30pm 17.0 NNE 7 9 1006.8 - 0.0 - - 10 - - - -
01/12:00pm 15.9 ENE 4 6 1007.6 - 0.0 - Partly cloudy 10 - - - -
01/11:30am 14.2 NE 7 9 1007.9 - 0.0 - - 10 - - - -
01/11:00am 13.8 NE 8 10 1008.5 - 0.0 - - 10 - - - -
01/10:30am 13.9 NE 6 7 1008.9 - 0.0 - Partly cloudy 10 - - - -
01/10:00am 14.7 NNE 5 7 1009.5 - 0.0 - Partly cloudy 10 - - - -
01/09:30am 15.0 N 5 7 1009.9 - 0.0 - Partly cloudy 10 - - - -
01/09:00am 14.1 NNE 6 8 1009.9 - 0.0 - Cloudy 10 - - - -
01/08:30am 14.4 NNE 5 7 1010.0 - 0.0 - Partly cloudy 10 - - - -
01/08:00am 14.7 N 7 9 1010.0 - 0.0 - Partly cloudy 10 - - - -
01/07:30am 14.9 N 12 21 1010.2 - 0.0 - - 10 - - - -
01/07:00am 11.2 NE 5 7 1010.6 - 0.0 - Partly cloudy 10 - - - -
01/06:30am 11.3 NNE 5 7 1010.5 - 0.0 - Partly cloudy 10 - - - -
01/06:00am 11.9 ENE 5 6 1010.6 - 0.0 - Cloudy 10 - - - -
01/05:30am 12.1 ENE 6 8 1010.5 - 0.0 - - 10 - - - -
01/05:00am 12.2 ENE 6 9 1010.3 - 0.0 - - 10 - - - -
01/04:30am 10.5 E 6 7 1010.5 - 0.0 - - 10 - - - -
01/04:00am 8.1 E 2 4 1010.7 - 0.0 - - 10 - - - -
01/03:30am 10.2 NE 4 6 1010.6 - 0.0 - - 10 - - - -
01/03:00am 9.7 NNE 7 8 1010.5 - 0.0 - - 10 - - - -
01/02:30am 9.0 NNE 6 7 1010.9 - 0.0 - - 10 - - - -
01/02:00am 9.6 NNE 5 7 1011.4 - 0.0 - - 10 - - - -
01/01:30am 10.1 NE 6 8 1011.9 - 0.0 - - 10 - - - -
01/01:00am 9.9 NNE 6 8 1012.3 - 0.0 - - 10 - - - -
01/12:30am 10.4 NNE 7 9 1012.6 - 0.0 - - 10 - - - -
01/12:00am 9.0 NNE 4 5 1013.0 - 0.0 - Mostly clear 10 - - - -
 
Date/Time
EST
Temp

°C
Wind Pressure Rain
since 9am
mm
Weather Cloud Vis
km
Sea
Height
m
Swell
Dir
 
Speed
knots
Gust
knots
hPa Trend Height
m
Period
s
Dir
31/11:30pm 9.4 N 3 4 1013.4 - 0.0 - - 10 - - - -
31/11:00pm 9.2 NW 5 6 1013.8 - 0.0 - - 10 - - - -
31/10:30pm 9.5 N 4 5 1014.1 - 0.0 - - 10 - - - -
31/10:00pm 9.9 N 4 6 1014.4 - 0.0 - - 10 - - - -
31/09:30pm 10.4 N 5 6 1014.6 - 0.0 - - 10 - - - -
31/09:00pm 10.8 N 5 6 1014.8 - 0.0 - Mostly cloudy 10 - - - -
31/08:30pm 11.2 ENE 5 6 1014.9 - 0.0 - - 10 - - - -
31/08:00pm 12.2 ENE 5 6 1015.0 - 0.0 - - 10 - - - -
31/07:30pm 12.1 ENE 6 7 1015.0 - 0.0 - - 10 - - - -
31/07:00pm 13.5 ENE 7 9 1015.0 - 0.0 - - 10 - - - -
31/06:30pm 12.7 E 6 7 1015.0 - 0.0 - - 10 - - - -
31/06:00pm 13.4 E 6 7 1014.9 - 0.0 - - 10 - - - -
31/05:30pm 14.5 E 6 8 1014.7 - 0.0 - - 10 - - - -
31/05:00pm 16.7 E 7 8 1014.6 - 0.0 - - 10 - - - -
31/04:30pm 18.2 ESE 6 8 1014.5 - 0.0 - - 10 - - - -
31/04:00pm 19.1 E 8 10 1014.7 - 0.0 - - 10 - - - -
31/03:30pm 20.0 ESE 8 10 1014.8 - 0.0 - - 10 - - - -
31/03:00pm 20.2 E 6 8 1015.2 - 0.0 - - 10 - - - -
31/02:30pm 20.2 E 6 9 1015.3 - 0.0 - - 10 - - - -
31/02:00pm 19.9 ENE 6 8 1015.7 - 0.0 - - 10 - - - -
31/01:30pm 20.2 NE 4 6 1016.2 - 0.0 - - 10 - - - -
31/01:00pm 19.7 ENE 5 8 1016.7 - 0.0 - - 10 - - - -
31/12:30pm 19.7 NNE 4 7 1017.3 - 0.0 - - 10 - - - -
31/12:00pm 19.4 N 3 6 1017.8 - 0.0 - - 10 - - - -
31/11:30am 18.3 NNW 5 7 1018.3 - 0.0 - - 10 - - - -
31/11:00am 17.6 N 4 6 1018.7 - 0.0 - - 10 - - - -
31/10:30am 15.8 NNW 5 6 1019.1 - 0.0 - - 10 - - - -
31/10:00am 13.8 NNW 5 6 1019.6 - 0.0 - - 10 - - - -
31/09:30am 11.8 N 4 6 1019.8 - 0.0 - - 10 - - - -
31/09:00am 10.0 NNW 4 5 1020.1 - 0.0 - - 10 - - - -
31/08:30am 8.3 NNW 4 5 1020.3 - 0.0 - - 10 - - - -
31/08:00am 7.2 NNW 5 6 1020.2 - 0.0 - - 10 - - - -
31/07:40am 6.2 NW 5 5 1020.1 - 0.0 - - 10 - - - -
31/07:30am 4.9 NW 4 5 1020.2 - 0.0 - - 5 - - - -
31/07:00am 3.6 NNW 5 5 1019.9 - 0.0 - - 0.7 - - - -
31/06:30am 2.9 NNW 3 3 1019.9 - 0.0 - - 0.4 - - - -
31/06:00am 2.4 N 4 4 1019.8 - 0.0 - - 0.4 - - - -
31/05:30am 2.8 NNW 3 4 1019.7 - 0.0 - Partly cloudy 0.2 - - - -
31/05:00am 4.0 NNW 3 4 1019.5 - 0.0 - - 2 - - - -
31/04:30am 3.7 WNW 3 3 1019.6 - 0.0 - - 2 - - - -
31/04:00am 2.0 NW 1 4 1019.6 - 0.0 - - 0.2 - - - -
31/03:30am 4.2 N 2 3 1019.8 - 0.0 - - 0.9 - - - -
31/03:00am 3.9 N 4 5 1019.9 - 0.0 - - 0.5 - - - -

Other Formats:

Comma delimited format used in spreadsheet applications
http://www.bom.gov.au/fwo/IDV60701/IDV60701.94912.axf

JavaScript Object Notation format (JSON) in row-major order
http://www.bom.gov.au/fwo/IDV60701/IDV60701.94912.json